Time;durP1;ratioP1;P1;durP2;ratioP2;P2;SDS_P1;SDS_P2;PMS_P1;PMS_P2;Temp;Humidity;BMP_temperature;BMP_pressure;BME280_temperature;BME280_humidity;BME280_pressure;Samples;Min_cycle;Max_cycle;Signal;HPM_P1;HPM_P2
2021/11/10 00:00:49;;;;;;;49.72;12.85;;;;;;;8.97;95.77;102661.72;5083034;28;20024;-88
2021/11/10 00:03:14;;;;;;;40.13;13.10;;;;;;;8.95;95.42;102659.09;5061760;28;20036;-88
2021/11/10 00:05:40;;;;;;;42.13;12.98;;;;;;;8.95;95.31;102656.50;5061520;28;20134;-88
2021/11/10 00:08:05;;;;;;;37.78;12.55;;;;;;;8.93;95.19;102655.63;5061726;28;20024;-88
2021/11/10 00:10:31;;;;;;;34.88;12.30;;;;;;;8.94;94.99;102659.97;5079135;28;20377;-88
2021/11/10 00:15:55;;;;;;;33.63;12.05;;;;;;;8.90;94.28;102660.84;5058110;28;20036;-88
2021/11/10 00:18:20;;;;;;;34.72;11.10;;;;;;;8.92;94.34;102656.50;5061201;28;20561;-88
2021/11/10 00:20:46;;;;;;;38.03;11.65;;;;;;;8.92;94.40;102648.66;5061672;28;20339;-88
2021/11/10 00:23:11;;;;;;;42.42;12.35;;;;;;;8.90;94.46;102653.03;5053943;28;20055;-88
2021/11/10 00:25:37;;;;;;;35.60;10.82;;;;;;;8.91;94.18;102649.50;5060777;28;20031;-88
2021/11/10 00:28:02;;;;;;;39.05;13.77;;;;;;;8.91;94.51;102646.03;5068946;28;20232;-88
2021/11/10 00:30:29;;;;;;;34.53;12.85;;;;;;;8.90;94.45;102642.56;5045679;28;20040;-88
2021/11/10 00:32:55;;;;;;;35.00;13.55;;;;;;;8.91;94.61;102640.81;5077459;28;20047;-88
2021/11/10 00:35:21;;;;;;;41.83;13.60;;;;;;;8.88;94.36;102641.72;5064443;28;20035;-87
2021/11/10 00:37:46;;;;;;;43.67;14.38;;;;;;;8.88;94.05;102638.22;5081762;28;20034;-88
2021/11/10 00:40:12;;;;;;;44.85;14.35;;;;;;;8.88;94.11;102640.81;5068178;28;20043;-88
2021/11/10 00:42:37;;;;;;;52.75;15.52;;;;;;;8.87;94.20;102629.50;5061343;28;20024;-88
2021/11/10 00:45:04;;;;;;;50.30;15.70;;;;;;;8.86;93.40;102629.50;5061215;28;20040;-88
2021/11/10 00:47:29;;;;;;;40.45;15.45;;;;;;;8.86;93.25;102619.06;5079158;28;20040;-88
2021/11/10 00:49:55;;;;;;;59.25;17.27;;;;;;;8.88;93.52;102619.91;5044601;28;20039;-88
2021/11/10 00:52:20;;;;;;;58.50;17.50;;;;;;;8.88;93.50;102609.47;5044014;28;20036;-88
2021/11/10 00:54:46;;;;;;;53.38;17.60;;;;;;;8.90;94.08;102619.06;5060691;28;20044;-88
2021/11/10 00:57:11;;;;;;;55.60;18.98;;;;;;;8.91;93.99;102619.91;5061322;28;20334;-88
2021/11/10 00:59:37;;;;;;;64.70;21.35;;;;;;;8.90;94.50;102602.53;5040605;28;20024;-88
2021/11/10 01:02:02;;;;;;;60.08;20.17;;;;;;;8.88;94.25;102606.84;5061203;28;20036;-88
2021/11/10 01:04:28;;;;;;;59.88;20.38;;;;;;;8.88;94.53;102605.13;5060910;28;20032;-87
2021/11/10 01:06:53;;;;;;;71.07;20.95;;;;;;;8.87;94.44;102606.00;5060963;28;20036;-88
2021/11/10 01:09:19;;;;;;;70.63;23.48;;;;;;;8.86;94.63;102596.44;5058218;28;20020;-88
2021/11/10 01:11:47;;;;;;;72.13;20.02;;;;;;;8.88;94.78;102599.03;5044245;28;20032;-87
2021/11/10 01:14:13;;;;;;;69.68;21.55;;;;;;;8.86;94.90;102590.31;5060952;28;20035;-88
2021/11/10 01:16:39;;;;;;;65.70;20.77;;;;;;;8.86;94.65;102598.16;5060724;28;20028;-88
2021/11/10 01:19:04;;;;;;;63.67;20.35;;;;;;;8.84;94.65;102591.22;5044283;28;20056;-88
2021/11/10 01:21:30;;;;;;;62.28;19.00;;;;;;;8.82;94.73;102582.53;5078693;28;20335;-88
2021/11/10 01:23:55;;;;;;;69.47;21.00;;;;;;;8.84;94.70;102587.72;5060849;28;20067;-88
2021/11/10 01:26:21;;;;;;;64.93;19.70;;;;;;;8.83;94.92;102593.84;5060734;28;20025;-88
2021/11/10 01:28:46;;;;;;;52.25;18.70;;;;;;;8.84;94.85;102585.09;5061040;28;20047;-88
2021/11/10 01:31:12;;;;;;;64.93;20.38;;;;;;;8.80;94.63;102571.22;5078666;28;20035;-88
2021/11/10 01:33:37;;;;;;;65.22;20.98;;;;;;;8.80;94.42;102568.59;5043714;28;20040;-88
2021/11/10 01:36:03;;;;;;;70.13;22.48;;;;;;;8.80;94.15;102567.72;5060832;28;20028;-88
2021/11/10 01:38:28;;;;;;;70.10;21.45;;;;;;;8.81;94.12;102548.56;5060359;28;20123;-88
2021/11/10 01:40:54;;;;;;;63.47;20.38;;;;;;;8.80;94.30;102541.59;5060693;28;20285;-88
2021/11/10 01:43:19;;;;;;;66.38;20.70;;;;;;;8.79;94.05;102526.81;5060547;28;20047;-88
2021/11/10 01:45:46;;;;;;;59.55;20.50;;;;;;;8.76;93.79;102522.47;5060730;28;20037;-88
2021/11/10 01:48:11;;;;;;;63.55;19.65;;;;;;;8.74;93.91;102524.22;5044407;28;20036;-88
2021/11/10 01:50:37;;;;;;;61.08;19.23;;;;;;;8.70;93.58;102525.13;5060474;28;20056;-88
2021/11/10 01:53:02;;;;;;;63.30;20.60;;;;;;;8.70;93.90;102529.47;5060247;28;20052;-88
2021/11/10 01:55:28;;;;;;;70.28;20.88;;;;;;;8.68;93.97;102521.66;5060334;28;20044;-88
2021/11/10 01:57:53;;;;;;;66.07;20.77;;;;;;;8.68;93.82;102518.16;5046049;28;20066;-87
2021/11/10 02:00:20;;;;;;;70.45;20.25;;;;;;;8.67;93.83;102513.81;5063645;28;20098;-88
2021/11/10 02:02:47;;;;;;;67.43;21.02;;;;;;;8.67;94.05;102506.84;5076592;28;20037;-88
2021/11/10 02:05:13;;;;;;;74.75;21.90;;;;;;;8.67;93.85;102492.91;5044320;28;20040;-88
2021/11/10 02:07:39;;;;;;;72.35;20.20;;;;;;;8.65;93.76;102496.41;5030690;28;20335;-88
2021/11/10 02:10:06;;;;;;;67.03;20.83;;;;;;;8.65;93.71;102511.22;5063912;28;20104;-88
2021/11/10 02:12:32;;;;;;;68.43;21.23;;;;;;;8.62;93.50;102500.78;5047728;28;20050;-88
2021/11/10 02:14:58;;;;;;;61.75;20.45;;;;;;;8.63;93.73;102499.91;5081867;28;20044;-88
2021/11/10 02:17:23;;;;;;;68.40;19.95;;;;;;;8.61;93.61;102494.69;5047311;28;20028;-88
2021/11/10 02:19:50;;;;;;;69.75;19.85;;;;;;;8.61;93.79;102505.13;5064400;28;20042;-88
2021/11/10 02:22:17;;;;;;;71.45;20.80;;;;;;;8.60;93.75;102513.88;5030817;28;20027;-88
2021/11/10 02:24:44;;;;;;;56.67;19.52;;;;;;;8.62;94.11;102519.94;5063561;28;20299;-88
2021/11/10 02:27:21;;;;;;;65.40;19.30;;;;;;;8.62;94.28;102519.94;5063688;28;20100;-88
2021/11/10 02:29:47;;;;;;;62.20;18.80;;;;;;;8.63;94.06;102524.28;5081835;28;20328;-87
2021/11/10 02:32:12;;;;;;;58.40;18.90;;;;;;;8.62;94.27;102513.81;5047390;28;20032;-88
2021/11/10 02:34:38;;;;;;;68.60;20.45;;;;;;;8.63;93.81;102533.88;5063541;28;20028;-88
2021/11/10 02:37:04;;;;;;;71.75;20.40;;;;;;;8.64;94.32;102532.97;5063464;28;20059;-88
2021/11/10 02:39:31;;;;;;;63.92;20.38;;;;;;;8.64;94.38;102523.41;5046525;28;20440;-88
2021/11/10 02:41:56;;;;;;;69.30;20.63;;;;;;;8.65;94.26;102532.97;5047084;28;20024;-88
2021/11/10 02:44:21;;;;;;;64.75;20.00;;;;;;;8.67;94.54;102529.50;5063061;28;20032;-88
2021/11/10 02:46:48;;;;;;;70.28;22.60;;;;;;;8.68;94.55;102515.53;5081398;28;20037;-88
2021/11/10 02:49:13;;;;;;;62.63;19.70;;;;;;;8.67;94.48;102511.22;5063649;28;20035;-88
2021/11/10 02:52:00;;;;;;;73.10;21.45;;;;;;;8.67;94.47;102513.81;5063278;28;20059;-88
2021/11/10 02:54:26;;;;;;;59.45;19.35;;;;;;;8.64;94.24;102510.34;5062819;28;20111;-88
2021/11/10 02:56:53;;;;;;;57.15;18.73;;;;;;;8.67;94.20;102503.38;5046855;28;20108;-87
2021/11/10 02:59:19;;;;;;;52.78;16.20;;;;;;;8.69;94.40;102496.38;5094759;28;20404;-88
2021/11/10 03:01:45;;;;;;;57.58;17.58;;;;;;;8.67;94.09;102504.22;5066734;28;20023;-88
2021/11/10 03:04:20;;;;;;;48.47;16.15;;;;;;;8.65;93.80;102504.22;5034232;28;20100;-88
2021/11/10 03:06:46;;;;;;;54.03;15.82;;;;;;;8.65;93.75;102509.47;5080955;28;20036;-88
2021/11/10 03:09:14;;;;;;;45.10;15.32;;;;;;;8.67;94.00;102492.91;5062859;28;20371;-88
2021/11/10 03:11:40;;;;;;;50.28;16.17;;;;;;;8.67;93.91;102492.91;5063093;28;20278;-88
2021/11/10 03:14:05;;;;;;;55.95;14.98;;;;;;;8.66;93.17;102486.84;5080869;28;20048;-88
2021/11/10 03:16:31;;;;;;;58.20;16.23;;;;;;;8.67;93.38;102485.09;5062713;28;20454;-88
2021/11/10 03:18:56;;;;;;;51.80;15.07;;;;;;;8.66;93.19;102497.28;5045853;28;20048;-88
2021/11/10 03:21:22;;;;;;;58.10;15.65;;;;;;;8.65;93.08;102482.47;5080487;28;20040;-88
2021/11/10 03:23:47;;;;;;;40.35;13.82;;;;;;;8.64;92.82;102485.97;5062717;28;20250;-88
2021/11/10 03:26:13;;;;;;;50.92;14.23;;;;;;;8.63;93.04;102495.53;5062427;28;20028;-88
2021/11/10 03:28:38;;;;;;;46.95;14.27;;;;;;;8.64;92.85;102492.06;5062675;28;20063;-88
2021/11/10 03:31:03;;;;;;;56.38;15.50;;;;;;;8.64;93.03;102493.78;5062616;28;20044;-88
2021/11/10 03:33:29;;;;;;;36.88;13.32;;;;;;;8.61;93.15;102494.69;5062323;28;20032;-88
2021/11/10 03:35:54;;;;;;;41.90;12.95;;;;;;;8.61;92.52;102493.84;5062689;28;20035;-89
2021/11/10 03:38:20;;;;;;;40.10;12.43;;;;;;;8.62;92.70;102500.78;5062655;28;20032;-89
2021/11/10 03:40:45;;;;;;;37.83;12.65;;;;;;;8.61;92.84;102501.66;5045815;28;20039;-89
2021/11/10 03:43:11;;;;;;;34.85;11.57;;;;;;;8.60;92.15;102505.13;5062621;28;20055;-85
2021/11/10 03:45:36;;;;;;;36.42;12.13;;;;;;;8.59;92.68;102506.03;5062278;28;20020;-85
2021/11/10 03:48:02;;;;;;;31.92;12.32;;;;;;;8.58;92.47;102502.53;5079953;28;20032;-85
2021/11/10 03:50:27;;;;;;;36.70;11.95;;;;;;;8.57;92.34;102498.22;5045701;28;20036;-85
2021/11/10 03:52:53;;;;;;;40.53;12.60;;;;;;;8.58;92.63;102496.44;5045314;28;20028;-85
2021/11/10 03:55:18;;;;;;;36.70;11.93;;;;;;;8.57;92.52;102502.56;5045059;28;20217;-85
2021/11/10 03:57:44;;;;;;;32.38;11.80;;;;;;;8.56;92.72;102496.47;5079602;28;20075;-85
2021/11/10 04:00:10;;;;;;;35.90;11.02;;;;;;;8.55;92.80;102502.56;5082247;28;20050;-85
2021/11/10 04:02:35;;;;;;;32.85;11.90;;;;;;;8.55;92.52;102506.91;5081727;28;20035;-85
2021/11/10 04:05:00;;;;;;;40.70;12.43;;;;;;;8.56;92.79;102509.50;5082001;28;20044;-85
2021/11/10 04:07:27;;;;;;;30.20;11.82;;;;;;;8.55;93.14;102518.25;5081757;28;20084;-85
2021/11/10 04:09:53;;;;;;;39.05;13.02;;;;;;;8.56;93.18;102521.72;5089394;28;20032;-85
2021/11/10 04:12:18;;;;;;;32.08;11.45;;;;;;;8.53;93.17;102514.78;5061899;28;20032;-85
2021/11/10 04:14:43;;;;;;;40.00;11.63;;;;;;;8.55;93.10;102522.56;5045529;28;20032;-85
2021/11/10 04:17:09;;;;;;;33.38;11.40;;;;;;;8.53;93.35;102519.09;5061808;28;20032;-85
2021/11/10 04:19:35;;;;;;;34.38;11.50;;;;;;;8.53;93.08;102514.78;5061440;28;20056;-85
2021/11/10 04:22:02;;;;;;;34.67;10.77;;;;;;;8.54;93.27;102521.72;5045068;28;20024;-85
2021/11/10 04:24:28;;;;;;;37.58;11.95;;;;;;;8.53;93.30;102521.72;5061558;28;20070;-85
2021/11/10 04:26:53;;;;;;;37.10;12.35;;;;;;;8.53;93.35;102525.22;5044724;28;20036;-85
2021/11/10 04:29:19;;;;;;;38.65;11.50;;;;;;;8.53;93.70;102530.44;5043922;28;20040;-85
2021/11/10 04:31:44;;;;;;;26.17;10.10;;;;;;;8.52;93.54;102526.09;5044961;28;20150;-85
2021/11/10 04:34:10;;;;;;;37.67;12.00;;;;;;;8.53;93.81;102524.34;5045054;28;20040;-85
2021/11/10 04:36:36;;;;;;;41.95;11.32;;;;;;;8.52;93.49;102525.22;5044557;28;20031;-85
2021/11/10 04:39:01;;;;;;;35.00;10.93;;;;;;;8.52;93.71;102520.00;5061546;28;20166;-85
2021/11/10 04:41:27;;;;;;;25.55;10.25;;;;;;;8.51;93.67;102526.94;5061224;28;20032;-85
2021/11/10 04:43:53;;;;;;;30.05;10.80;;;;;;;8.52;93.70;102527.84;5061415;28;20040;-85
2021/11/10 04:46:29;;;;;;;28.58;10.85;;;;;;;8.52;93.61;102531.31;5061280;28;20028;-85
2021/11/10 04:48:55;;;;;;;27.08;10.15;;;;;;;8.50;93.45;102538.28;5046196;28;20028;-85
2021/11/10 04:51:22;;;;;;;33.17;10.90;;;;;;;8.51;93.43;102531.31;5061055;28;20281;-85
2021/11/10 04:53:48;;;;;;;40.67;10.27;;;;;;;8.51;93.19;102528.69;5061182;28;20135;-85
2021/11/10 04:56:14;;;;;;;24.02;9.75;;;;;;;8.50;93.55;102530.44;5061136;28;20085;-85
2021/11/10 04:58:39;;;;;;;26.20;9.70;;;;;;;8.50;93.38;102537.44;5060938;28;20035;-85
2021/11/10 05:01:05;;;;;;;25.35;9.88;;;;;;;8.49;93.27;102528.69;5061218;28;20035;-85
2021/11/10 05:03:30;;;;;;;25.15;9.25;;;;;;;8.48;92.97;102524.38;5044456;28;20259;-85
2021/11/10 05:05:56;;;;;;;23.80;9.55;;;;;;;8.49;93.06;102525.22;5044332;28;20036;-85
2021/11/10 05:08:21;;;;;;;33.65;10.70;;;;;;;8.50;93.09;102529.59;5044578;28;20024;-85
2021/11/10 05:10:47;;;;;;;29.92;9.05;;;;;;;8.49;93.04;102525.22;5061783;28;20032;-85
2021/11/10 05:13:12;;;;;;;27.92;9.10;;;;;;;8.46;93.02;102513.06;5081006;28;20238;-85
2021/11/10 05:15:38;;;;;;;29.67;9.88;;;;;;;8.46;92.62;102520.91;5064201;28;20086;-85
2021/11/10 05:18:03;;;;;;;34.05;9.55;;;;;;;8.47;92.72;102526.97;5081022;28;20200;-85
2021/11/10 05:20:29;;;;;;;24.25;9.93;;;;;;;8.46;93.17;102515.69;5064166;28;20035;-85
2021/11/10 05:22:55;;;;;;;28.10;9.98;;;;;;;8.46;93.17;102513.06;5080791;28;20104;-85
2021/11/10 05:25:20;;;;;;;36.22;11.15;;;;;;;8.43;93.15;102507.84;5063613;28;20073;-85
2021/11/10 05:27:46;;;;;;;25.00;9.82;;;;;;;8.40;93.42;102506.09;5081085;28;20099;-85
2021/11/10 05:30:12;;;;;;;31.77;9.60;;;;;;;8.37;92.56;102500.88;5081012;28;20282;-85
2021/11/10 05:32:38;;;;;;;21.98;9.73;;;;;;;8.37;92.57;102511.34;5063990;28;20028;-85
2021/11/10 05:35:04;;;;;;;24.60;9.85;;;;;;;8.35;92.41;102515.69;5081027;28;20047;-85
2021/11/10 05:37:29;;;;;;;27.10;10.23;;;;;;;8.36;92.69;102517.41;5063794;28;20032;-85
2021/11/10 05:39:55;;;;;;;31.17;10.00;;;;;;;8.34;92.52;102513.94;5053102;28;20052;-85
2021/11/10 05:42:20;;;;;;;23.65;10.43;;;;;;;8.35;92.73;102520.03;5047531;28;20074;-85
2021/11/10 05:44:46;;;;;;;26.40;10.13;;;;;;;8.35;92.86;102522.63;5064789;28;20020;-85
2021/11/10 05:47:11;;;;;;;26.25;10.05;;;;;;;8.34;92.72;102528.75;5047629;28;20029;-85
2021/11/10 05:49:37;;;;;;;30.05;11.07;;;;;;;8.32;92.65;102527.91;5064416;28;20400;-85
2021/11/10 05:52:03;;;;;;;29.65;10.98;;;;;;;8.32;92.51;102533.97;5064526;28;20243;-85
2021/11/10 05:54:29;;;;;;;25.48;11.35;;;;;;;8.32;92.81;102527.91;5047293;28;20032;-85
2021/11/10 05:56:54;;;;;;;33.80;11.13;;;;;;;8.30;93.02;102521.81;5081235;28;20335;-85
2021/11/10 05:59:20;;;;;;;26.23;11.02;;;;;;;8.30;92.65;102524.44;5095984;28;20039;-85
2021/11/10 06:01:46;;;;;;;36.42;11.77;;;;;;;8.26;92.59;102529.66;5084445;28;20054;-85
2021/11/10 06:04:11;;;;;;;26.95;11.00;;;;;;;8.24;92.60;102527.91;5084136;28;20040;-85
2021/11/10 06:06:37;;;;;;;35.42;11.57;;;;;;;8.23;91.90;102536.63;5084016;28;20028;-85
2021/11/10 06:09:02;;;;;;;32.55;11.10;;;;;;;8.21;91.94;102533.16;5064139;28;20062;-85
2021/11/10 06:11:28;;;;;;;30.58;11.68;;;;;;;8.19;91.78;102535.75;5063873;28;20335;-85
2021/11/10 06:13:53;;;;;;;26.67;11.55;;;;;;;8.15;91.36;102530.53;5047315;28;20243;-85
2021/11/10 06:16:18;;;;;;;27.90;12.07;;;;;;;8.12;91.48;102531.44;5063836;28;20362;-85
2021/11/10 06:18:45;;;;;;;31.60;10.93;;;;;;;8.12;91.47;102536.66;5082114;28;20255;-85
2021/11/10 06:21:11;;;;;;;29.90;11.50;;;;;;;8.11;91.58;102536.66;5081551;28;20032;-85
2021/11/10 06:23:36;;;;;;;25.70;11.23;;;;;;;8.10;91.72;102537.56;5047093;28;20025;-85
2021/11/10 06:26:02;;;;;;;29.20;10.88;;;;;;;8.08;91.88;102540.16;5063540;28;20047;-85
2021/11/10 06:28:27;;;;;;;25.15;12.00;;;;;;;8.09;92.25;102549.72;5047060;28;20043;-85
2021/11/10 06:30:53;;;;;;;31.33;11.20;;;;;;;8.06;91.96;102549.75;5063961;28;20224;-85
2021/11/10 06:33:18;;;;;;;32.50;11.02;;;;;;;8.05;92.05;102545.38;5049392;28;20034;-85
2021/11/10 06:35:44;;;;;;;29.40;12.30;;;;;;;8.00;91.37;102552.34;5063826;28;20044;-85
2021/11/10 06:38:09;;;;;;;26.67;11.73;;;;;;;8.00;91.31;102560.16;5046493;28;20040;-85
2021/11/10 06:40:35;;;;;;;31.35;11.82;;;;;;;8.00;91.40;102555.81;5063301;28;20032;-85
2021/11/10 06:43:00;;;;;;;25.20;10.45;;;;;;;7.99;91.49;102548.00;5081148;28;20040;-85
2021/11/10 06:45:25;;;;;;;29.17;11.23;;;;;;;7.99;91.67;102545.41;5063499;28;20037;-85
2021/11/10 06:47:51;;;;;;;33.00;11.73;;;;;;;7.98;91.73;102549.72;5046471;28;20032;-85
2021/11/10 06:50:16;;;;;;;27.85;11.40;;;;;;;7.98;91.61;102554.09;5081155;28;20033;-85
2021/11/10 06:52:42;;;;;;;32.83;11.55;;;;;;;7.96;91.63;102550.63;5061723;28;20040;-85
2021/11/10 06:55:08;;;;;;;32.58;12.10;;;;;;;7.95;91.59;102549.75;5063195;28;20090;-85
2021/11/10 06:57:34;;;;;;;26.65;11.55;;;;;;;7.94;91.46;102553.22;5046240;28;20040;-85
2021/11/10 06:59:59;;;;;;;32.72;12.38;;;;;;;7.92;91.65;102554.97;5063089;28;20340;-85
2021/11/10 07:02:25;;;;;;;34.33;11.52;;;;;;;7.91;91.02;102565.41;5046249;28;20025;-85
2021/11/10 07:04:50;;;;;;;32.20;11.80;;;;;;;7.91;91.28;102565.41;5029837;28;20070;-85
2021/11/10 07:07:19;;;;;;;34.85;11.07;;;;;;;7.90;91.05;102571.53;5063587;28;20021;-85
2021/11/10 07:09:44;;;;;;;30.90;11.30;;;;;;;7.90;91.21;102569.78;5063947;28;20363;-85
2021/11/10 07:12:10;;;;;;;33.97;11.52;;;;;;;7.88;90.98;102575.00;5047003;28;20050;-85
2021/11/10 07:14:35;;;;;;;38.17;13.32;;;;;;;7.88;91.08;102582.81;5063760;28;20090;-85
2021/11/10 07:17:01;;;;;;;35.45;12.45;;;;;;;7.89;91.18;102588.88;5085445;28;20032;-85
2021/11/10 07:19:26;;;;;;;33.50;11.98;;;;;;;7.89;91.15;102588.88;5080821;28;20027;-85
2021/11/10 07:21:52;;;;;;;40.42;13.07;;;;;;;7.87;90.30;102596.72;5058965;28;20046;-85
2021/11/10 07:24:17;;;;;;;31.42;11.30;;;;;;;7.90;90.64;102602.81;5066987;28;20055;-85
2021/11/10 07:26:42;;;;;;;39.63;12.93;;;;;;;7.89;91.09;102601.94;5076283;28;20064;-85
2021/11/10 07:29:08;;;;;;;41.75;12.88;;;;;;;7.88;90.77;102601.06;5047419;28;20057;-85
2021/11/10 07:31:33;;;;;;;36.28;12.15;;;;;;;7.90;90.83;102597.59;5095999;28;20044;-85
2021/11/10 07:33:59;;;;;;;32.58;12.75;;;;;;;7.85;89.89;102588.03;5066142;28;20217;-85
2021/11/10 07:36:26;;;;;;;29.52;12.05;;;;;;;7.87;90.30;102577.59;5064038;28;20232;-85
2021/11/10 07:38:51;;;;;;;24.45;11.50;;;;;;;7.87;90.44;102574.97;5058883;28;20114;-85
2021/11/10 07:41:18;;;;;;;35.33;12.98;;;;;;;7.87;90.51;102572.38;5076974;28;20297;-85
2021/11/10 07:43:44;;;;;;;30.83;12.23;;;;;;;7.85;89.99;102566.28;5051073;28;20039;-85
2021/11/10 07:46:14;;;;;;;36.20;12.05;;;;;;;7.85;90.06;102548.91;5061330;28;20351;-85
2021/11/10 07:48:41;;;;;;;46.67;13.00;;;;;;;7.85;89.80;102543.69;5047113;28;20035;-84
2021/11/10 07:51:06;;;;;;;32.75;12.40;;;;;;;7.86;89.66;102541.97;5056870;28;20032;-85
2021/11/10 07:53:31;;;;;;;42.10;11.88;;;;;;;7.87;89.85;102531.50;5050190;28;20095;-85
2021/11/10 07:55:57;;;;;;;37.90;12.60;;;;;;;7.90;90.46;102551.50;5069566;28;20051;-85
2021/11/10 07:58:23;;;;;;;44.15;13.60;;;;;;;7.92;90.44;102572.38;5064808;28;20027;-85
2021/11/10 08:00:48;;;;;;;42.00;14.27;;;;;;;7.93;90.68;102592.38;5076776;28;20048;-85
2021/11/10 08:03:14;;;;;;;23.95;10.77;;;;;;;7.91;90.03;102601.94;5062969;28;20393;-85
2021/11/10 08:05:39;;;;;;;32.33;12.18;;;;;;;7.93;90.09;102615.84;5047982;28;20028;-85
2021/11/10 08:08:04;;;;;;;32.22;12.43;;;;;;;7.93;90.44;102619.34;5071664;28;20055;-85
2021/11/10 08:10:30;;;;;;;34.25;13.10;;;;;;;7.96;90.88;102606.28;5055268;28;20112;-85
2021/11/10 08:12:56;;;;;;;34.63;12.75;;;;;;;7.98;91.19;102588.00;5046980;28;20033;-85
2021/11/10 08:15:21;;;;;;;36.00;11.93;;;;;;;7.99;91.05;102576.72;5075551;28;20179;-85
2021/11/10 08:17:47;;;;;;;31.65;12.27;;;;;;;8.01;91.08;102588.88;5042760;28;20047;-85
2021/11/10 08:20:16;;;;;;;33.72;12.73;;;;;;;8.04;91.16;102585.38;5045458;28;20028;-85
2021/11/10 08:22:45;;;;;;;33.85;13.27;;;;;;;8.05;91.75;102585.38;5067370;28;20036;-85
2021/11/10 08:25:11;;;;;;;35.20;12.93;;;;;;;8.07;91.74;102580.16;5046089;28;20078;-85
2021/11/10 08:27:36;;;;;;;37.25;13.68;;;;;;;8.07;91.47;102583.63;5055697;28;20227;-85
2021/11/10 08:30:05;;;;;;;45.53;14.40;;;;;;;8.07;91.09;102583.63;5075608;28;20032;-85
2021/11/10 08:32:30;;;;;;;36.28;12.10;;;;;;;8.06;89.54;102586.28;5055242;28;20043;-85
2021/11/10 08:34:56;;;;;;;32.75;13.13;;;;;;;8.07;89.79;102583.63;5076216;28;20032;-85
2021/11/10 08:37:21;;;;;;;36.90;12.20;;;;;;;8.08;89.95;102585.38;5058380;28;20071;-85
2021/11/10 08:39:47;;;;;;;26.00;12.80;;;;;;;8.09;89.95;102583.63;5075936;28;20049;-85
2021/11/10 08:42:12;;;;;;;36.38;12.77;;;;;;;8.09;89.62;102594.06;5054781;28;20029;-85
2021/11/10 08:44:44;;;;;;;28.23;11.63;;;;;;;8.09;89.63;102581.03;5055583;28;20048;-85
2021/11/10 08:47:09;;;;;;;37.80;13.35;;;;;;;8.10;89.55;102580.16;5044514;28;20035;-85
2021/11/10 08:49:35;;;;;;;32.92;12.35;;;;;;;8.10;89.04;102581.91;5073134;28;20032;-85
2021/11/10 08:52:00;;;;;;;30.38;13.68;;;;;;;8.11;88.96;102586.25;5051815;28;20040;-85
2021/11/10 08:54:26;;;;;;;34.25;13.88;;;;;;;8.13;89.39;102579.28;5073205;28;20232;-85
2021/11/10 08:56:55;;;;;;;32.95;14.23;;;;;;;8.12;89.00;102577.56;5032158;28;20097;-85
2021/11/10 08:59:20;;;;;;;35.17;14.57;;;;;;;8.10;87.85;102582.78;5073405;28;20324;-85
2021/11/10 09:01:51;;;;;;;36.50;12.95;;;;;;;8.12;88.08;102580.16;5056005;28;20096;-85
2021/11/10 09:04:17;;;;;;;34.10;13.13;;;;;;;8.13;87.73;102585.38;5058037;28;20024;-85
2021/11/10 09:06:43;;;;;;;28.65;13.13;;;;;;;8.15;88.58;102587.97;5076546;28;20105;-84
2021/11/10 09:09:08;;;;;;;29.10;13.20;;;;;;;8.12;86.53;102588.84;5064014;28;20033;-85
2021/11/10 09:11:34;;;;;;;34.63;12.80;;;;;;;8.14;87.59;102597.53;5022161;28;20248;-85
2021/11/10 09:13:59;;;;;;;36.03;14.13;;;;;;;8.15;87.44;102587.97;5051760;28;20044;-85
2021/11/10 09:16:25;;;;;;;34.22;13.55;;;;;;;8.15;86.27;102581.03;5062734;28;20036;-85
2021/11/10 09:18:50;;;;;;;32.20;12.52;;;;;;;8.21;86.47;102577.53;5054382;28;20059;-85
2021/11/10 09:21:16;;;;;;;27.58;11.93;;;;;;;8.22;87.60;102577.53;5058447;28;20036;-86
2021/11/10 09:23:41;;;;;;;39.90;14.05;;;;;;;8.29;87.55;102587.94;5038300;28;20033;-85
2021/11/10 09:26:07;;;;;;;40.25;13.07;;;;;;;8.34;88.30;102581.81;5071954;28;20032;-85
2021/11/10 09:28:33;;;;;;;34.25;14.00;;;;;;;8.37;88.32;102579.22;5066270;28;20106;-85
2021/11/10 09:30:58;;;;;;;35.15;12.35;;;;;;;8.39;87.66;102584.44;5064481;28;20324;-85
2021/11/10 09:33:24;;;;;;;40.30;13.85;;;;;;;8.44;87.76;102586.19;5070519;28;20224;-85
2021/11/10 09:35:50;;;;;;;31.02;12.45;;;;;;;8.49;88.17;102573.09;5040485;28;20028;-85
2021/11/10 09:38:16;;;;;;;26.02;11.90;;;;;;;8.53;88.42;102569.63;5057702;28;20330;-85
2021/11/10 09:40:43;;;;;;;35.97;12.48;;;;;;;8.55;87.67;102575.69;5065917;28;20051;-85
2021/11/10 09:43:08;;;;;;;35.03;12.15;;;;;;;8.60;88.36;102576.53;5056185;28;20036;-85
2021/11/10 09:45:35;;;;;;;34.13;13.23;;;;;;;8.62;88.69;102576.50;5034010;28;20301;-85
2021/11/10 09:48:02;;;;;;;32.95;13.13;;;;;;;8.67;89.54;102586.94;5063926;28;20036;-85
2021/11/10 09:50:28;;;;;;;36.58;13.68;;;;;;;8.64;87.25;102593.94;5076824;28;20047;-85
2021/11/10 09:52:53;;;;;;;31.05;13.43;;;;;;;8.65;86.86;102590.44;5084289;28;20056;-85
2021/11/10 09:55:20;;;;;;;28.75;12.10;;;;;;;8.66;86.93;102588.72;5080131;28;20093;-85
2021/11/10 09:57:49;;;;;;;34.33;13.30;;;;;;;8.66;86.88;102578.25;5080147;28;20051;-85
2021/11/10 10:00:22;;;;;;;;;;;;;;;8.67;87.05;102579.97;5080613;28;20035;-85
2021/11/10 10:02:48;;;;;;;28.83;12.10;;;;;;;8.69;87.18;102575.59;5071587;28;19911;-85
2021/11/10 10:05:14;;;;;;;33.38;12.30;;;;;;;8.71;86.83;102573.84;5063204;28;20036;-85
2021/11/10 10:07:40;;;;;;;30.05;11.43;;;;;;;8.70;85.53;102569.53;5045353;28;20350;-85
2021/11/10 10:10:06;;;;;;;27.35;12.50;;;;;;;8.74;86.79;102570.38;5079890;28;20329;-85
2021/11/10 10:12:31;;;;;;;30.50;12.75;;;;;;;8.80;88.56;102572.94;5060146;28;20361;-85
2021/11/10 10:14:57;;;;;;;31.15;12.55;;;;;;;8.82;87.52;102573.78;5087524;28;20044;-85
2021/11/10 10:17:58;;;;;;;29.98;12.23;;;;;;;8.91;90.01;102580.72;5049368;28;20030;-85
2021/11/10 10:20:26;;;;;;;25.98;12.13;;;;;;;8.87;87.54;102592.06;5040395;28;20103;-85
2021/11/10 10:22:51;;;;;;;26.45;11.38;;;;;;;8.92;88.16;102595.53;5061628;28;20024;-85
2021/11/10 10:25:17;;;;;;;27.02;12.15;;;;;;;8.96;89.81;102598.09;5071934;28;20043;-85
2021/11/10 10:27:56;;;;;;;28.42;11.02;;;;;;;8.96;89.05;102594.63;5045789;28;20024;-85
2021/11/10 10:30:33;;;;;;;27.10;11.15;;;;;;;8.99;89.75;102594.63;5062716;28;20479;-85
2021/11/10 10:33:10;;;;;;;24.42;11.55;;;;;;;8.95;87.36;102588.53;5061627;28;20033;-85
2021/11/10 10:35:40;;;;;;;27.65;10.98;;;;;;;8.98;87.25;102592.88;5045509;28;20320;-85
2021/11/10 10:38:07;;;;;;;29.52;10.50;;;;;;;8.96;84.54;102594.63;5075213;28;20031;-86
2021/11/10 10:40:32;;;;;;;32.65;11.02;;;;;;;9.03;87.48;102588.50;5073349;28;20032;-85
2021/11/10 10:42:58;;;;;;;24.42;11.43;;;;;;;9.09;89.83;102587.59;5070126;28;20339;-85
2021/11/10 10:45:35;;;;;;;27.83;11.15;;;;;;;9.02;87.76;102595.47;5047309;28;20036;-85
2021/11/10 10:48:04;;;;;;;25.05;9.27;;;;;;;9.07;86.34;102594.56;5066695;28;20313;-85
2021/11/10 10:50:31;;;;;;;24.65;10.23;;;;;;;9.13;89.36;102590.19;5057740;28;20059;-85
2021/11/10 10:52:56;;;;;;;25.13;9.73;;;;;;;9.10;86.36;102592.81;5074310;28;20036;-85
2021/11/10 10:55:33;;;;;;;30.50;10.45;;;;;;;9.16;87.53;102590.13;5057737;28;20066;-85
2021/11/10 10:57:59;;;;;;;26.60;10.68;;;;;;;9.18;88.28;102585.75;5052877;28;20024;-85
2021/11/10 11:00:27;;;;;;;32.33;10.25;;;;;;;9.20;90.14;102583.13;5067400;28;20043;-85
2021/11/10 11:02:53;;;;;;;25.50;9.75;;;;;;;9.18;88.43;102580.53;5048873;28;20073;-85
2021/11/10 11:05:40;;;;;;;23.50;9.80;;;;;;;9.23;88.31;102583.13;5045839;28;20036;-85
2021/11/10 11:08:24;;;;;;;29.63;11.05;;;;;;;9.26;89.64;102574.38;5067196;28;20258;-85
2021/11/10 11:10:50;;;;;;;19.92;10.38;;;;;;;9.29;90.30;102575.22;5089266;28;20059;-85
2021/11/10 11:13:23;;;;;;;29.92;11.55;;;;;;;9.30;91.25;102576.13;5057617;28;20039;-85
2021/11/10 11:16:04;;;;;;;22.98;11.02;;;;;;;9.32;91.92;102574.34;5064586;28;20040;-85